sensor_id;sensor_type;location;lat;lon;timestamp;pressure;altitude;pressure_sealevel;temperature;humidity
20825;BME280;10573;50.936;6.978;2024-01-11T00:01:15;102660.81;;;-0.53;54.65
20825;BME280;10573;50.936;6.978;2024-01-11T00:03:40;102654.41;;;-0.42;54.49
20825;BME280;10573;50.936;6.978;2024-01-11T00:06:05;102655.84;;;-0.76;54.80
20825;BME280;10573;50.936;6.978;2024-01-11T00:08:31;102662.97;;;-0.75;55.30
20825;BME280;10573;50.936;6.978;2024-01-11T00:10:56;102663.56;;;-0.57;55.20
20825;BME280;10573;50.936;6.978;2024-01-11T00:13:21;102668.75;;;-0.46;55.15
20825;BME280;10573;50.936;6.978;2024-01-11T00:15:47;102668.06;;;-0.58;55.21
20825;BME280;10573;50.936;6.978;2024-01-11T00:18:12;102672.75;;;-0.72;55.35
20825;BME280;10573;50.936;6.978;2024-01-11T00:20:38;102665.22;;;-0.50;55.38
20825;BME280;10573;50.936;6.978;2024-01-11T00:23:03;102660.91;;;-0.57;55.61
20825;BME280;10573;50.936;6.978;2024-01-11T00:25:28;102659.06;;;-0.54;55.51
20825;BME280;10573;50.936;6.978;2024-01-11T00:27:54;102653.28;;;-0.30;55.36
20825;BME280;10573;50.936;6.978;2024-01-11T00:30:19;102653.63;;;-0.49;55.95
20825;BME280;10573;50.936;6.978;2024-01-11T00:32:45;102665.25;;;-0.52;56.02
20825;BME280;10573;50.936;6.978;2024-01-11T00:35:10;102661.69;;;-0.51;56.15
20825;BME280;10573;50.936;6.978;2024-01-11T00:37:35;102664.25;;;-0.46;56.01
20825;BME280;10573;50.936;6.978;2024-01-11T00:40:01;102662.31;;;-0.35;55.85
20825;BME280;10573;50.936;6.978;2024-01-11T00:42:26;102664.78;;;-0.77;56.43
20825;BME280;10573;50.936;6.978;2024-01-11T00:44:51;102664.09;;;-0.90;56.54
20825;BME280;10573;50.936;6.978;2024-01-11T00:47:17;102660.91;;;-0.57;56.37
20825;BME280;10573;50.936;6.978;2024-01-11T00:49:42;102660.84;;;-0.54;56.02
20825;BME280;10573;50.936;6.978;2024-01-11T00:52:08;102674.94;;;-0.44;55.91
20825;BME280;10573;50.936;6.978;2024-01-11T00:54:35;102673.09;;;-0.41;55.82
20825;BME280;10573;50.936;6.978;2024-01-11T00:57:00;102675.31;;;-0.64;56.71
20825;BME280;10573;50.936;6.978;2024-01-11T00:59:26;102675.94;;;-0.50;55.80
20825;BME280;10573;50.936;6.978;2024-01-11T01:01:51;102681.28;;;-0.50;55.94
20825;BME280;10573;50.936;6.978;2024-01-11T01:04:16;102671.53;;;-0.51;56.31
20825;BME280;10573;50.936;6.978;2024-01-11T01:06:42;102664.63;;;-0.68;56.77
20825;BME280;10573;50.936;6.978;2024-01-11T01:09:08;102670.69;;;-0.55;56.21
20825;BME280;10573;50.936;6.978;2024-01-11T01:11:34;102676.56;;;-0.87;56.49
20825;BME280;10573;50.936;6.978;2024-01-11T01:13:59;102675.72;;;-0.91;56.82
20825;BME280;10573;50.936;6.978;2024-01-11T01:16:25;102672.63;;;-0.66;57.13
20825;BME280;10573;50.936;6.978;2024-01-11T01:18:50;102676.25;;;-0.69;56.93
20825;BME280;10573;50.936;6.978;2024-01-11T01:21:15;102666.31;;;-0.60;56.57
20825;BME280;10573;50.936;6.978;2024-01-11T01:23:41;102668.81;;;-1.06;57.14
20825;BME280;10573;50.936;6.978;2024-01-11T01:26:07;102676.47;;;-0.82;56.93
20825;BME280;10573;50.936;6.978;2024-01-11T01:28:32;102672.31;;;-1.04;57.63
20825;BME280;10573;50.936;6.978;2024-01-11T01:30:57;102683.28;;;-1.21;58.02
20825;BME280;10573;50.936;6.978;2024-01-11T01:33:23;102673.16;;;-0.98;57.72
20825;BME280;10573;50.936;6.978;2024-01-11T01:35:48;102682.00;;;-0.95;57.25
20825;BME280;10573;50.936;6.978;2024-01-11T01:38:14;102683.03;;;-1.04;56.97
20825;BME280;10573;50.936;6.978;2024-01-11T01:40:39;102694.50;;;-0.95;57.26
20825;BME280;10573;50.936;6.978;2024-01-11T01:43:08;102693.66;;;-0.97;57.53
20825;BME280;10573;50.936;6.978;2024-01-11T01:45:34;102691.25;;;-1.17;57.60
20825;BME280;10573;50.936;6.978;2024-01-11T01:48:00;102687.50;;;-1.04;58.08
20825;BME280;10573;50.936;6.978;2024-01-11T01:50:25;102684.81;;;-1.03;57.59
20825;BME280;10573;50.936;6.978;2024-01-11T01:52:51;102697.34;;;-1.08;58.03
20825;BME280;10573;50.936;6.978;2024-01-11T01:55:17;102698.94;;;-0.94;57.77
20825;BME280;10573;50.936;6.978;2024-01-11T01:57:46;102696.31;;;-0.97;57.29
20825;BME280;10573;50.936;6.978;2024-01-11T02:00:13;102698.34;;;-1.15;58.08
20825;BME280;10573;50.936;6.978;2024-01-11T02:02:45;102698.50;;;-1.26;58.46
20825;BME280;10573;50.936;6.978;2024-01-11T02:05:12;102708.06;;;-1.08;57.90
20825;BME280;10573;50.936;6.978;2024-01-11T02:07:40;102709.00;;;-1.12;58.22
20825;BME280;10573;50.936;6.978;2024-01-11T02:10:07;102713.31;;;-1.02;57.98
20825;BME280;10573;50.936;6.978;2024-01-11T02:12:34;102710.06;;;-1.22;57.72
20825;BME280;10573;50.936;6.978;2024-01-11T02:15:00;102706.81;;;-1.50;58.22
20825;BME280;10573;50.936;6.978;2024-01-11T02:17:28;102714.06;;;-1.60;59.02
20825;BME280;10573;50.936;6.978;2024-01-11T02:19:53;102710.63;;;-1.70;58.91
20825;BME280;10573;50.936;6.978;2024-01-11T02:22:22;102705.94;;;-1.49;59.15
20825;BME280;10573;50.936;6.978;2024-01-11T02:24:49;102699.53;;;-1.38;58.23
20825;BME280;10573;50.936;6.978;2024-01-11T02:27:14;102703.09;;;-1.36;58.63
20825;BME280;10573;50.936;6.978;2024-01-11T02:29:40;102697.66;;;-1.29;58.11
20825;BME280;10573;50.936;6.978;2024-01-11T02:32:05;102694.16;;;-1.35;58.54
20825;BME280;10573;50.936;6.978;2024-01-11T02:34:31;102701.22;;;-1.27;58.49
20825;BME280;10573;50.936;6.978;2024-01-11T02:37:00;102704.97;;;-1.45;58.58
20825;BME280;10573;50.936;6.978;2024-01-11T02:39:25;102700.53;;;-1.45;58.98
20825;BME280;10573;50.936;6.978;2024-01-11T02:41:56;102693.50;;;-1.54;59.22
20825;BME280;10573;50.936;6.978;2024-01-11T02:44:22;102691.94;;;-1.72;59.38
20825;BME280;10573;50.936;6.978;2024-01-11T02:46:47;102687.22;;;-1.49;59.51
20825;BME280;10573;50.936;6.978;2024-01-11T02:49:13;102689.28;;;-1.75;59.74
20825;BME280;10573;50.936;6.978;2024-01-11T02:51:38;102691.56;;;-1.41;59.24
20825;BME280;10573;50.936;6.978;2024-01-11T02:54:03;102690.75;;;-1.46;59.12
20825;BME280;10573;50.936;6.978;2024-01-11T02:56:29;102688.06;;;-1.46;59.08
20825;BME280;10573;50.936;6.978;2024-01-11T02:58:54;102692.59;;;-1.51;59.35
20825;BME280;10573;50.936;6.978;2024-01-11T03:01:20;102697.88;;;-1.48;59.10
20825;BME280;10573;50.936;6.978;2024-01-11T03:03:45;102691.75;;;-1.53;59.41
20825;BME280;10573;50.936;6.978;2024-01-11T03:06:10;102704.47;;;-1.75;59.68
20825;BME280;10573;50.936;6.978;2024-01-11T03:08:36;102693.56;;;-1.58;59.34
20825;BME280;10573;50.936;6.978;2024-01-11T03:11:01;102698.97;;;-1.64;59.96
20825;BME280;10573;50.936;6.978;2024-01-11T03:13:27;102683.66;;;-1.50;59.69
20825;BME280;10573;50.936;6.978;2024-01-11T03:15:52;102689.94;;;-1.53;59.26
20825;BME280;10573;50.936;6.978;2024-01-11T03:18:17;102679.50;;;-1.74;59.95
20825;BME280;10573;50.936;6.978;2024-01-11T03:20:43;102678.44;;;-1.59;59.97
20825;BME280;10573;50.936;6.978;2024-01-11T03:23:08;102671.13;;;-1.45;59.72
20825;BME280;10573;50.936;6.978;2024-01-11T03:25:34;102667.59;;;-1.48;59.93
20825;BME280;10573;50.936;6.978;2024-01-11T03:27:59;102670.47;;;-1.65;59.48
20825;BME280;10573;50.936;6.978;2024-01-11T03:30:25;102671.44;;;-1.71;60.51
20825;BME280;10573;50.936;6.978;2024-01-11T03:32:50;102675.81;;;-1.62;60.41
20825;BME280;10573;50.936;6.978;2024-01-11T03:35:18;102679.22;;;-1.51;60.02
20825;BME280;10573;50.936;6.978;2024-01-11T03:37:44;102675.63;;;-1.48;60.01
20825;BME280;10573;50.936;6.978;2024-01-11T03:40:09;102675.72;;;-1.56;59.93
20825;BME280;10573;50.936;6.978;2024-01-11T03:42:35;102680.31;;;-1.67;60.18
20825;BME280;10573;50.936;6.978;2024-01-11T03:45:00;102679.25;;;-1.53;60.11
20825;BME280;10573;50.936;6.978;2024-01-11T03:47:25;102673.84;;;-1.49;59.67
20825;BME280;10573;50.936;6.978;2024-01-11T03:49:51;102686.63;;;-1.75;60.43
20825;BME280;10573;50.936;6.978;2024-01-11T03:52:16;102685.75;;;-1.75;60.46
20825;BME280;10573;50.936;6.978;2024-01-11T03:54:42;102686.63;;;-1.75;60.77
20825;BME280;10573;50.936;6.978;2024-01-11T03:57:07;102689.00;;;-1.50;60.26
20825;BME280;10573;50.936;6.978;2024-01-11T03:59:33;102687.88;;;-1.32;60.13
20825;BME280;10573;50.936;6.978;2024-01-11T04:01:59;102678.13;;;-1.36;59.82
20825;BME280;10573;50.936;6.978;2024-01-11T04:04:24;102682.66;;;-1.41;59.90
20825;BME280;10573;50.936;6.978;2024-01-11T04:06:51;102678.94;;;-1.29;59.44
20825;BME280;10573;50.936;6.978;2024-01-11T04:09:17;102676.25;;;-1.29;59.48
20825;BME280;10573;50.936;6.978;2024-01-11T04:11:42;102692.66;;;-1.57;59.96
20825;BME280;10573;50.936;6.978;2024-01-11T04:14:07;102699.66;;;-1.47;59.68
20825;BME280;10573;50.936;6.978;2024-01-11T04:16:33;102693.53;;;-1.55;59.94
20825;BME280;10573;50.936;6.978;2024-01-11T04:18:59;102692.56;;;-1.49;59.62
20825;BME280;10573;50.936;6.978;2024-01-11T04:21:26;102703.31;;;-1.54;59.81
20825;BME280;10573;50.936;6.978;2024-01-11T04:23:54;102707.91;;;-1.67;60.29
20825;BME280;10573;50.936;6.978;2024-01-11T04:26:20;102708.72;;;-1.59;60.11
20825;BME280;10573;50.936;6.978;2024-01-11T04:28:46;102690.81;;;-1.52;60.22
20825;BME280;10573;50.936;6.978;2024-01-11T04:31:14;102699.63;;;-1.45;60.18
20825;BME280;10573;50.936;6.978;2024-01-11T04:33:42;102706.97;;;-1.60;60.37
20825;BME280;10573;50.936;6.978;2024-01-11T04:36:08;102707.28;;;-1.88;60.66
20825;BME280;10573;50.936;6.978;2024-01-11T04:38:34;102715.19;;;-1.81;60.57
20825;BME280;10573;50.936;6.978;2024-01-11T04:40:59;102723.97;;;-1.67;60.82
20825;BME280;10573;50.936;6.978;2024-01-11T04:43:25;102719.63;;;-1.79;60.66
20825;BME280;10573;50.936;6.978;2024-01-11T04:45:51;102729.34;;;-1.70;60.05
20825;BME280;10573;50.936;6.978;2024-01-11T04:48:16;102725.97;;;-1.88;60.53
20825;BME280;10573;50.936;6.978;2024-01-11T04:50:42;102728.38;;;-1.64;60.15
20825;BME280;10573;50.936;6.978;2024-01-11T04:53:08;102724.63;;;-1.48;59.71
20825;BME280;10573;50.936;6.978;2024-01-11T04:55:34;102720.47;;;-1.74;59.86
20825;BME280;10573;50.936;6.978;2024-01-11T04:57:59;102731.50;;;-2.06;60.82
20825;BME280;10573;50.936;6.978;2024-01-11T05:00:25;102726.13;;;-2.03;61.03
20825;BME280;10573;50.936;6.978;2024-01-11T05:02:50;102735.88;;;-1.97;60.72
20825;BME280;10573;50.936;6.978;2024-01-11T05:05:15;102734.00;;;-1.89;60.75
20825;BME280;10573;50.936;6.978;2024-01-11T05:07:41;102733.16;;;-1.94;60.64
20825;BME280;10573;50.936;6.978;2024-01-11T05:10:07;102739.41;;;-1.95;60.73
20825;BME280;10573;50.936;6.978;2024-01-11T05:12:33;102742.97;;;-1.93;60.69
20825;BME280;10573;50.936;6.978;2024-01-11T05:14:58;102738.63;;;-2.07;60.90
20825;BME280;10573;50.936;6.978;2024-01-11T05:17:25;102733.09;;;-1.90;60.58
20825;BME280;10573;50.936;6.978;2024-01-11T05:19:51;102737.47;;;-1.79;60.62
20825;BME280;10573;50.936;6.978;2024-01-11T05:22:17;102728.66;;;-1.89;60.87
20825;BME280;10573;50.936;6.978;2024-01-11T05:24:43;102727.84;;;-1.99;61.07
20825;BME280;10573;50.936;6.978;2024-01-11T05:27:08;102740.41;;;-2.09;60.73
20825;BME280;10573;50.936;6.978;2024-01-11T05:29:34;102733.28;;;-2.05;60.89
20825;BME280;10573;50.936;6.978;2024-01-11T05:31:59;102738.97;;;-2.45;62.24
20825;BME280;10573;50.936;6.978;2024-01-11T05:34:25;102745.09;;;-2.36;61.86
20825;BME280;10573;50.936;6.978;2024-01-11T05:36:50;102735.31;;;-2.38;61.52
20825;BME280;10573;50.936;6.978;2024-01-11T05:39:16;102747.22;;;-2.82;61.93
20825;BME280;10573;50.936;6.978;2024-01-11T05:41:44;102746.97;;;-2.50;61.85
20825;BME280;10573;50.936;6.978;2024-01-11T05:44:10;102750.56;;;-2.51;61.80
20825;BME280;10573;50.936;6.978;2024-01-11T05:46:36;102763.97;;;-2.60;62.03
20825;BME280;10573;50.936;6.978;2024-01-11T05:49:01;102756.03;;;-2.73;62.09
20825;BME280;10573;50.936;6.978;2024-01-11T05:51:27;102770.22;;;-2.67;61.83
20825;BME280;10573;50.936;6.978;2024-01-11T05:53:52;102770.22;;;-2.64;62.05
20825;BME280;10573;50.936;6.978;2024-01-11T05:56:18;102777.13;;;-2.36;61.29
20825;BME280;10573;50.936;6.978;2024-01-11T05:58:45;102773.81;;;-2.68;61.45
20825;BME280;10573;50.936;6.978;2024-01-11T06:01:11;102765.63;;;-2.42;61.26
20825;BME280;10573;50.936;6.978;2024-01-11T06:03:36;102753.31;;;-2.62;61.63
20825;BME280;10573;50.936;6.978;2024-01-11T06:06:03;102775.63;;;-2.77;62.19
20825;BME280;10573;50.936;6.978;2024-01-11T06:08:29;102785.59;;;-3.10;62.51
20825;BME280;10573;50.936;6.978;2024-01-11T06:10:56;102783.69;;;-2.86;62.04
20825;BME280;10573;50.936;6.978;2024-01-11T06:13:21;102792.44;;;-2.62;61.90
20825;BME280;10573;50.936;6.978;2024-01-11T06:15:47;102780.88;;;-2.61;61.76
20825;BME280;10573;50.936;6.978;2024-01-11T06:18:12;102786.09;;;-2.43;61.35
20825;BME280;10573;50.936;6.978;2024-01-11T06:20:37;102787.81;;;-2.36;61.44
20825;BME280;10573;50.936;6.978;2024-01-11T06:23:03;102791.53;;;-2.55;61.85
20825;BME280;10573;50.936;6.978;2024-01-11T06:25:28;102804.78;;;-2.46;61.71
20825;BME280;10573;50.936;6.978;2024-01-11T06:27:54;102816.38;;;-2.48;61.96
20825;BME280;10573;50.936;6.978;2024-01-11T06:30:20;102800.38;;;-2.47;61.60
20825;BME280;10573;50.936;6.978;2024-01-11T06:32:45;102800.28;;;-2.41;61.56
20825;BME280;10573;50.936;6.978;2024-01-11T06:35:10;102790.44;;;-2.32;61.66
20825;BME280;10573;50.936;6.978;2024-01-11T06:37:36;102796.63;;;-2.24;61.53
20825;BME280;10573;50.936;6.978;2024-01-11T06:40:01;102791.31;;;-2.29;62.09
20825;BME280;10573;50.936;6.978;2024-01-11T06:42:29;102793.09;;;-2.26;62.40
20825;BME280;10573;50.936;6.978;2024-01-11T06:44:55;102799.38;;;-2.37;62.80
20825;BME280;10573;50.936;6.978;2024-01-11T06:47:20;102812.03;;;-2.68;63.06
20825;BME280;10573;50.936;6.978;2024-01-11T06:49:45;102805.75;;;-2.59;62.80
20825;BME280;10573;50.936;6.978;2024-01-11T06:52:11;102811.03;;;-2.47;63.25
20825;BME280;10573;50.936;6.978;2024-01-11T06:54:36;102800.31;;;-2.44;63.07
20825;BME280;10573;50.936;6.978;2024-01-11T06:57:02;102802.28;;;-2.71;63.70
20825;BME280;10573;50.936;6.978;2024-01-11T06:59:27;102812.03;;;-2.66;63.31
20825;BME280;10573;50.936;6.978;2024-01-11T07:01:52;102803.94;;;-2.54;63.43
20825;BME280;10573;50.936;6.978;2024-01-11T07:04:18;102804.06;;;-2.73;63.51
20825;BME280;10573;50.936;6.978;2024-01-11T07:06:43;102807.53;;;-2.55;63.64
20825;BME280;10573;50.936;6.978;2024-01-11T07:09:09;102818.19;;;-2.58;63.55
20825;BME280;10573;50.936;6.978;2024-01-11T07:11:36;102809.34;;;-2.60;63.52
20825;BME280;10573;50.936;6.978;2024-01-11T07:14:01;102808.47;;;-2.64;63.75
20825;BME280;10573;50.936;6.978;2024-01-11T07:16:27;102806.53;;;-2.40;63.67
20825;BME280;10573;50.936;6.978;2024-01-11T07:18:52;102802.16;;;-2.50;64.04
20825;BME280;10573;50.936;6.978;2024-01-11T07:21:24;102795.06;;;-2.55;64.21
20825;BME280;10573;50.936;6.978;2024-01-11T07:24:00;102807.50;;;-2.52;64.22
20825;BME280;10573;50.936;6.978;2024-01-11T07:26:26;102818.19;;;-2.54;63.90
20825;BME280;10573;50.936;6.978;2024-01-11T07:28:51;102797.59;;;-2.34;63.75
20825;BME280;10573;50.936;6.978;2024-01-11T07:31:17;102800.31;;;-2.44;63.30
20825;BME280;10573;50.936;6.978;2024-01-11T07:33:43;102798.44;;;-2.29;62.96
20825;BME280;10573;50.936;6.978;2024-01-11T07:36:08;102805.72;;;-2.53;62.87
20825;BME280;10573;50.936;6.978;2024-01-11T07:38:35;102823.44;;;-2.40;63.01
20825;BME280;10573;50.936;6.978;2024-01-11T07:41:00;102824.31;;;-2.41;63.18
20825;BME280;10573;50.936;6.978;2024-01-11T07:43:27;102829.91;;;-2.78;63.26
20825;BME280;10573;50.936;6.978;2024-01-11T07:45:54;102840.34;;;-2.42;62.96
20825;BME280;10573;50.936;6.978;2024-01-11T07:48:24;102840.50;;;-2.72;63.72
20825;BME280;10573;50.936;6.978;2024-01-11T07:50:49;102844.81;;;-2.41;63.18
20825;BME280;10573;50.936;6.978;2024-01-11T07:53:15;102850.00;;;-2.21;62.94
20825;BME280;10573;50.936;6.978;2024-01-11T07:55:41;102861.59;;;-2.25;63.14
20825;BME280;10573;50.936;6.978;2024-01-11T07:58:07;102870.47;;;-2.23;62.78
20825;BME280;10573;50.936;6.978;2024-01-11T08:00:32;102870.47;;;-2.22;62.66
20825;BME280;10573;50.936;6.978;2024-01-11T08:02:58;102862.38;;;-2.08;62.76
20825;BME280;10573;50.936;6.978;2024-01-11T08:05:24;102876.59;;;-2.03;62.34
20825;BME280;10573;50.936;6.978;2024-01-11T08:07:51;102874.81;;;-2.04;62.45
20825;BME280;10573;50.936;6.978;2024-01-11T08:10:16;102868.69;;;-2.21;62.02
20825;BME280;10573;50.936;6.978;2024-01-11T08:12:42;102863.38;;;-2.27;62.59
20825;BME280;10573;50.936;6.978;2024-01-11T08:15:09;102859.50;;;-1.84;62.38
20825;BME280;10573;50.936;6.978;2024-01-11T08:17:47;102863.22;;;-2.06;61.95
20825;BME280;10573;50.936;6.978;2024-01-11T08:20:12;102872.91;;;-1.92;62.59
20825;BME280;10573;50.936;6.978;2024-01-11T08:22:42;102864.72;;;-1.71;61.56
20825;BME280;10573;50.936;6.978;2024-01-11T08:25:11;102864.75;;;-1.69;61.27
20825;BME280;10573;50.936;6.978;2024-01-11T08:27:38;102863.09;;;-1.87;61.33
20825;BME280;10573;50.936;6.978;2024-01-11T08:30:04;102854.28;;;-1.98;61.93
20825;BME280;10573;50.936;6.978;2024-01-11T08:32:32;102853.41;;;-1.97;62.07
20825;BME280;10573;50.936;6.978;2024-01-11T08:35:08;102859.59;;;-1.94;62.26
20825;BME280;10573;50.936;6.978;2024-01-11T08:37:35;102842.75;;;-2.04;61.90
20825;BME280;10573;50.936;6.978;2024-01-11T08:40:02;102851.63;;;-2.02;61.76
20825;BME280;10573;50.936;6.978;2024-01-11T08:42:31;102855.34;;;-2.21;62.23
20825;BME280;10573;50.936;6.978;2024-01-11T08:44:56;102848.06;;;-1.97;62.08
20825;BME280;10573;50.936;6.978;2024-01-11T08:47:21;102861.38;;;-1.94;61.86
20825;BME280;10573;50.936;6.978;2024-01-11T08:49:47;102850.75;;;-2.02;61.79
20825;BME280;10573;50.936;6.978;2024-01-11T08:52:13;102840.84;;;-1.91;61.62
20825;BME280;10573;50.936;6.978;2024-01-11T08:54:38;102855.16;;;-1.96;61.80
20825;BME280;10573;50.936;6.978;2024-01-11T08:57:04;102845.31;;;-1.90;61.90
20825;BME280;10573;50.936;6.978;2024-01-11T08:59:31;102839.16;;;-1.99;61.99
20825;BME280;10573;50.936;6.978;2024-01-11T09:01:56;102839.84;;;-1.76;61.88
20825;BME280;10573;50.936;6.978;2024-01-11T09:04:22;102846.84;;;-1.64;61.80
20825;BME280;10573;50.936;6.978;2024-01-11T09:06:47;102854.97;;;-1.72;62.28
20825;BME280;10573;50.936;6.978;2024-01-11T09:09:13;102861.22;;;-1.77;62.42
20825;BME280;10573;50.936;6.978;2024-01-11T09:11:39;102871.81;;;-1.65;62.47
20825;BME280;10573;50.936;6.978;2024-01-11T09:14:06;102870.88;;;-1.59;62.62
20825;BME280;10573;50.936;6.978;2024-01-11T09:16:34;102879.88;;;-1.70;62.50
20825;BME280;10573;50.936;6.978;2024-01-11T09:19:01;102870.75;;;-1.47;61.35
20825;BME280;10573;50.936;6.978;2024-01-11T09:21:27;102870.66;;;-1.38;61.50
20825;BME280;10573;50.936;6.978;2024-01-11T09:23:52;102882.19;;;-1.32;61.67
20825;BME280;10573;50.936;6.978;2024-01-11T09:26:18;102879.44;;;-1.26;61.18
20825;BME280;10573;50.936;6.978;2024-01-11T09:28:44;102870.53;;;-1.25;61.49
20825;BME280;10573;50.936;6.978;2024-01-11T09:31:11;102874.09;;;-1.23;61.41
20825;BME280;10573;50.936;6.978;2024-01-11T09:33:38;102865.94;;;-1.12;60.88
20825;BME280;10573;50.936;6.978;2024-01-11T09:36:03;102873.75;;;-0.95;60.76
20825;BME280;10573;50.936;6.978;2024-01-11T09:38:29;102873.00;;;-1.07;61.15
20825;BME280;10573;50.936;6.978;2024-01-11T09:41:15;102873.63;;;-0.86;60.43
20825;BME280;10573;50.936;6.978;2024-01-11T09:43:41;102881.53;;;-0.74;59.87
20825;BME280;10573;50.936;6.978;2024-01-11T09:46:09;102879.59;;;-0.62;59.79
20825;BME280;10573;50.936;6.978;2024-01-11T09:48:35;102887.75;;;-0.72;59.92
20825;BME280;10573;50.936;6.978;2024-01-11T09:51:02;102891.97;;;-0.55;59.43
20825;BME280;10573;50.936;6.978;2024-01-11T09:53:32;102878.88;;;-0.77;60.15
20825;BME280;10573;50.936;6.978;2024-01-11T09:55:58;102881.44;;;-0.68;59.82
20825;BME280;10573;50.936;6.978;2024-01-11T09:58:25;102876.63;;;-0.41;58.90
20825;BME280;10573;50.936;6.978;2024-01-11T10:00:55;102892.63;;;-0.38;59.06
20825;BME280;10573;50.936;6.978;2024-01-11T10:03:24;102883.16;;;-0.60;59.35
20825;BME280;10573;50.936;6.978;2024-01-11T10:05:57;102880.19;;;-0.39;59.17
20825;BME280;10573;50.936;6.978;2024-01-11T10:08:38;102886.47;;;-0.44;59.55
20825;BME280;10573;50.936;6.978;2024-01-11T10:11:04;102890.53;;;-0.14;58.92
20825;BME280;10573;50.936;6.978;2024-01-11T10:13:31;102885.31;;;-0.23;58.88
20825;BME280;10573;50.936;6.978;2024-01-11T10:16:10;102892.53;;;-0.30;58.68
20825;BME280;10573;50.936;6.978;2024-01-11T10:18:38;102888.84;;;-0.21;58.73
20825;BME280;10573;50.936;6.978;2024-01-11T10:21:04;102885.72;;;0.07;58.68
20825;BME280;10573;50.936;6.978;2024-01-11T10:23:35;102874.84;;;0.19;57.91
20825;BME280;10573;50.936;6.978;2024-01-11T10:26:01;102868.66;;;0.14;57.75
20825;BME280;10573;50.936;6.978;2024-01-11T10:28:28;102869.16;;;0.36;57.61
20825;BME280;10573;50.936;6.978;2024-01-11T10:30:54;102862.19;;;0.27;57.38
20825;BME280;10573;50.936;6.978;2024-01-11T10:33:20;102868.53;;;0.20;57.60
20825;BME280;10573;50.936;6.978;2024-01-11T10:35:49;102858.34;;;0.42;57.38
20825;BME280;10573;50.936;6.978;2024-01-11T10:38:15;102863.63;;;0.45;57.03
20825;BME280;10573;50.936;6.978;2024-01-11T10:40:42;102867.41;;;0.33;56.94
20825;BME280;10573;50.936;6.978;2024-01-11T10:43:11;102863.72;;;0.42;57.15
20825;BME280;10573;50.936;6.978;2024-01-11T10:45:37;102862.38;;;0.66;57.07
20825;BME280;10573;50.936;6.978;2024-01-11T10:48:16;102865.91;;;0.70;56.70
20825;BME280;10573;50.936;6.978;2024-01-11T10:50:45;102854.38;;;0.65;56.81
20825;BME280;10573;50.936;6.978;2024-01-11T10:53:36;102851.28;;;0.85;56.43
20825;BME280;10573;50.936;6.978;2024-01-11T10:55:58;102846.16;;;0.73;56.51
20825;BME280;10573;50.936;6.978;2024-01-11T10:58:25;102844.22;;;0.81;56.39
20825;BME280;10573;50.936;6.978;2024-01-11T11:00:53;102853.06;;;0.86;56.06
20825;BME280;10573;50.936;6.978;2024-01-11T11:03:26;102862.03;;;0.85;56.23
20825;BME280;10573;50.936;6.978;2024-01-11T11:05:54;102866.50;;;0.86;56.57
20825;BME280;10573;50.936;6.978;2024-01-11T11:08:23;102873.75;;;0.29;57.27
20825;BME280;10573;50.936;6.978;2024-01-11T11:10:59;102876.31;;;0.37;57.68
20825;BME280;10573;50.936;6.978;2024-01-11T11:13:25;102891.69;;;0.27;58.17
20825;BME280;10573;50.936;6.978;2024-01-11T11:15:51;102900.06;;;0.06;59.22
20825;BME280;10573;50.936;6.978;2024-01-11T11:18:18;102882.72;;;0.28;58.43
20825;BME280;10573;50.936;6.978;2024-01-11T11:20:44;102893.31;;;0.35;58.25
20825;BME280;10573;50.936;6.978;2024-01-11T11:23:12;102888.97;;;0.79;57.55
20825;BME280;10573;50.936;6.978;2024-01-11T11:25:41;102890.03;;;1.17;57.15
20825;BME280;10573;50.936;6.978;2024-01-11T11:28:07;102878.00;;;0.91;56.67
20825;BME280;10573;50.936;6.978;2024-01-11T11:30:37;102867.06;;;1.44;55.83
20825;BME280;10573;50.936;6.978;2024-01-11T11:35:36;102862.16;;;1.63;54.90
20825;BME280;10573;50.936;6.978;2024-01-11T11:38:02;102856.94;;;1.57;54.91
20825;BME280;10573;50.936;6.978;2024-01-11T11:40:38;102855.91;;;1.63;55.26
20825;BME280;10573;50.936;6.978;2024-01-11T11:43:08;102854.19;;;1.60;54.38
20825;BME280;10573;50.936;6.978;2024-01-11T11:45:34;102846.53;;;1.81;54.06
20825;BME280;10573;50.936;6.978;2024-01-11T11:48:00;102831.50;;;2.10;53.35
20825;BME280;10573;50.936;6.978;2024-01-11T11:50:26;102826.94;;;2.12;53.04
20825;BME280;10573;50.936;6.978;2024-01-11T11:52:55;102837.38;;;2.24;53.22
20825;BME280;10573;50.936;6.978;2024-01-11T11:55:23;102846.22;;;2.29;52.86
20825;BME280;10573;50.936;6.978;2024-01-11T11:57:50;102841.19;;;2.51;52.59
20825;BME280;10573;50.936;6.978;2024-01-11T12:00:16;102847.03;;;2.67;52.21
20825;BME280;10573;50.936;6.978;2024-01-11T12:02:41;102844.09;;;2.75;51.62
20825;BME280;10573;50.936;6.978;2024-01-11T12:05:07;102856.09;;;2.29;51.61
20825;BME280;10573;50.936;6.978;2024-01-11T12:07:33;102852.25;;;2.05;52.35
20825;BME280;10573;50.936;6.978;2024-01-11T12:09:59;102845.50;;;2.57;52.06
20825;BME280;10573;50.936;6.978;2024-01-11T12:12:25;102842.22;;;2.46;52.35
20825;BME280;10573;50.936;6.978;2024-01-11T12:14:50;102842.88;;;2.87;51.88
20825;BME280;10573;50.936;6.978;2024-01-11T12:17:17;102833.03;;;3.47;50.80
20825;BME280;10573;50.936;6.978;2024-01-11T12:19:43;102817.75;;;4.55;48.84
20825;BME280;10573;50.936;6.978;2024-01-11T12:22:08;102807.25;;;5.88;45.91
20825;BME280;10573;50.936;6.978;2024-01-11T12:24:34;102793.19;;;6.84;42.97
20825;BME280;10573;50.936;6.978;2024-01-11T12:27:00;102793.63;;;7.70;41.82
20825;BME280;10573;50.936;6.978;2024-01-11T12:29:31;102781.97;;;8.22;39.76
20825;BME280;10573;50.936;6.978;2024-01-11T12:31:57;102782.09;;;7.84;40.04
20825;BME280;10573;50.936;6.978;2024-01-11T12:34:24;102771.81;;;8.44;39.17
20825;BME280;10573;50.936;6.978;2024-01-11T12:36:50;102757.97;;;8.99;38.01
20825;BME280;10573;50.936;6.978;2024-01-11T12:39:17;102754.47;;;9.29;37.50
20825;BME280;10573;50.936;6.978;2024-01-11T12:41:42;102761.09;;;8.76;38.00
20825;BME280;10573;50.936;6.978;2024-01-11T12:44:08;102749.03;;;9.29;37.30
20825;BME280;10573;50.936;6.978;2024-01-11T12:46:33;102752.22;;;9.37;37.54
20825;BME280;10573;50.936;6.978;2024-01-11T12:49:01;102747.22;;;9.92;35.93
20825;BME280;10573;50.936;6.978;2024-01-11T12:51:28;102743.03;;;9.24;37.00